Time;durP1;ratioP1;P1;durP2;ratioP2;P2;SDS_P1;SDS_P2;PMS_P1;PMS_P2;Temp;Humidity;BMP_temperature;BMP_pressure;BME280_temperature;BME280_humidity;BME280_pressure;Samples;Min_cycle;Max_cycle;Signal;HPM_P1;HPM_P2
2021/10/27 00:00:53;;;;;;;;;105.00;76.50;;;;;1.66;58.33;102695.66;4923034;29;8846;-71
2021/10/27 00:03:48;;;;;;;;;71.50;50.00;;;;;1.62;58.47;102696.34;4935937;29;8858;-70
2021/10/27 00:06:44;;;;;;;;;100.25;75.75;;;;;1.56;58.89;102687.13;4934144;29;8849;-69
2021/10/27 00:09:40;;;;;;;;;97.75;75.25;;;;;1.44;58.95;102690.78;4935497;29;8877;-70
2021/10/27 00:12:37;;;;;;;;;107.50;75.50;;;;;1.57;58.31;102679.78;4904576;29;8844;-70
2021/10/27 00:15:32;;;;;;;;;107.75;77.25;;;;;1.54;58.40;102681.09;4916178;29;8870;-70
2021/10/27 00:18:29;;;;;;;;;103.50;78.25;;;;;1.44;58.54;102675.28;4916413;29;9003;-69
2021/10/27 00:21:24;;;;;;;;;90.00;69.50;;;;;1.50;58.55;102673.56;4916292;29;8841;-70
2021/10/27 00:24:20;;;;;;;;;104.25;74.25;;;;;1.41;58.97;102672.16;4922860;29;9045;-70
2021/10/27 00:27:16;;;;;;;;;106.25;75.50;;;;;1.63;58.24;102660.66;4922664;29;9584;-71
2021/10/27 00:30:11;;;;;;;;;104.25;75.50;;;;;1.66;57.71;102665.66;4935072;29;8961;-71
2021/10/27 00:33:07;;;;;;;;;96.50;71.00;;;;;1.74;58.15;102661.81;4935321;29;9577;-71
2021/10/27 00:36:05;;;;;;;;;103.50;74.50;;;;;1.66;58.66;102662.91;4935149;29;8838;-71
2021/10/27 00:39:01;;;;;;;;;105.50;75.75;;;;;1.52;58.44;102668.72;4922515;29;8834;-70
2021/10/27 00:41:56;;;;;;;;;105.00;76.00;;;;;1.60;58.74;102669.25;4934967;29;8953;-72
2021/10/27 00:44:52;;;;;;;;;96.00;73.25;;;;;1.70;58.38;102665.22;4922209;29;8846;-70
2021/10/27 00:47:47;;;;;;;;;78.25;49.75;;;;;1.66;58.90;102667.53;4935170;29;8877;-71
2021/10/27 00:50:43;;;;;;;;;96.75;75.25;;;;;1.60;59.32;102665.69;4934959;29;8839;-71
2021/10/27 00:53:40;;;;;;;;;100.25;76.50;;;;;1.47;59.58;102663.94;4935234;29;8886;-71
2021/10/27 00:56:35;;;;;;;;;99.25;75.75;;;;;1.43;59.68;102659.97;4922689;29;8858;-70
2021/10/27 00:59:35;;;;;;;;;101.00;73.00;;;;;1.43;58.76;102661.84;4934718;29;8881;-70
2021/10/27 01:02:30;;;;;;;;;96.25;71.25;;;;;1.49;59.39;102666.44;4934700;29;8865;-71
2021/10/27 01:05:26;;;;;;;;;101.50;80.00;;;;;1.57;59.41;102655.25;4934020;29;8826;-71
2021/10/27 01:08:22;;;;;;;;;105.00;77.00;;;;;1.51;58.94;102664.31;4936251;29;8838;-71
2021/10/27 01:11:17;;;;;;;;;109.50;78.75;;;;;1.53;59.64;102659.47;4938554;29;8847;-71
2021/10/27 01:14:13;;;;;;;;;101.50;75.50;;;;;1.55;58.98;102657.38;4938586;29;8929;-71
2021/10/27 01:17:12;;;;;;;;;103.50;80.50;;;;;1.47;59.75;102661.22;4938074;29;8873;-71
2021/10/27 01:20:08;;;;;;;;;100.25;75.75;;;;;1.43;59.84;102659.13;4925578;29;8945;-71
2021/10/27 01:23:03;;;;;;;;;96.50;74.75;;;;;1.33;59.81;102648.72;4938728;29;8839;-71
2021/10/27 01:26:08;;;;;;;;;106.25;86.75;;;;;1.32;60.04;102647.91;4938661;29;8873;-71
2021/10/27 01:29:04;;;;;;;;;90.25;73.00;;;;;1.19;59.49;102644.44;4938631;29;8815;-71
2021/10/27 01:32:00;;;;;;;;;98.75;76.50;;;;;1.18;59.74;102642.75;4925814;29;8873;-72
2021/10/27 01:34:56;;;;;;;;;89.75;72.25;;;;;1.18;60.21;102645.50;4938460;29;9589;-72
2021/10/27 01:37:51;;;;;;;;;91.25;68.25;;;;;1.29;59.66;102642.03;4938134;29;8985;-72
2021/10/27 01:40:47;;;;;;;;;94.75;68.75;;;;;1.07;60.46;102645.16;4938317;29;8858;-72
2021/10/27 01:43:57;;;;;;;;;85.00;68.50;;;;;1.08;60.47;102641.38;4938231;29;8854;-71
2021/10/27 01:46:52;;;;;;;;;82.50;65.50;;;;;1.25;60.00;102635.38;4919388;29;8852;-72
2021/10/27 01:49:48;;;;;;;;;83.50;67.25;;;;;1.15;59.50;102633.16;4918374;29;8848;-72
2021/10/27 01:52:44;;;;;;;;;76.50;61.75;;;;;1.19;59.32;102628.91;4918997;29;8977;-72
2021/10/27 01:55:41;;;;;;;;;73.75;59.75;;;;;1.28;59.69;102633.03;4918272;29;8899;-71
2021/10/27 01:58:36;;;;;;;;;92.25;69.75;;;;;1.43;59.34;102631.88;4918905;29;8837;-71
2021/10/27 02:01:32;;;;;;;;;79.00;65.25;;;;;1.68;58.17;102627.22;4912850;29;8849;-71
2021/10/27 02:04:27;;;;;;;;;90.50;66.25;;;;;1.73;58.15;102632.84;4906758;29;8841;-71
2021/10/27 02:07:23;;;;;;;;;76.75;64.25;;;;;1.72;57.47;102641.28;4919020;29;8841;-72
2021/10/27 02:10:19;;;;;;;;;84.75;67.50;;;;;1.72;57.71;102635.81;4933110;29;8874;-71
2021/10/27 02:13:14;;;;;;;;;85.75;68.25;;;;;1.64;58.09;102629.59;4924985;29;8923;-71
2021/10/27 02:16:11;;;;;;;;;83.25;66.00;;;;;1.56;57.93;102632.59;4937595;29;8873;-72
2021/10/27 02:19:08;;;;;;;;;95.75;72.25;;;;;1.69;57.55;102639.84;4937259;29;8855;-72
2021/10/27 02:22:04;;;;;;;;;43.50;23.00;;;;;1.54;58.36;102634.72;4937696;29;8846;-71
2021/10/27 02:24:59;;;;;;;;;72.00;60.33;;;;;1.54;58.39;102628.44;4937379;29;8913;-71
2021/10/27 02:27:55;;;;;;;;;80.67;65.67;;;;;1.27;58.98;102633.25;4924730;29;8850;-71
2021/10/27 02:30:50;;;;;;;;;68.00;58.00;;;;;1.37;58.58;102631.69;4937288;29;8881;-72
2021/10/27 02:33:46;;;;;;;;;82.00;65.00;;;;;1.31;59.21;102635.31;4937400;29;8835;-71
2021/10/27 02:36:41;;;;;;;;;78.25;64.00;;;;;1.27;58.53;102625.06;4936440;29;8838;-71
2021/10/27 02:39:37;;;;;;;;;67.33;54.00;;;;;1.44;58.17;102626.19;4924701;29;9045;-71
2021/10/27 02:42:34;;;;;;;;;54.33;49.00;;;;;1.54;58.35;102617.53;4924455;29;8843;-71
2021/10/27 02:45:29;;;;;;;;;65.33;54.00;;;;;1.47;58.62;102622.19;4936950;29;8846;-71
2021/10/27 02:48:25;;;;;;;;;71.67;56.33;;;;;1.35;58.64;102614.72;4924494;29;8865;-72
2021/10/27 02:51:20;;;;;;;;;63.33;54.33;;;;;1.46;58.64;102618.63;4936771;29;8936;-71
2021/10/27 02:54:17;;;;;;;;;59.67;53.00;;;;;1.34;59.02;102615.78;4917349;29;8875;-72
2021/10/27 02:57:12;;;;;;;;;60.00;51.67;;;;;1.41;59.27;102613.00;4905189;29;8840;-72
2021/10/27 03:00:09;;;;;;;;;47.67;44.33;;;;;1.35;59.23;102611.16;4920283;29;9568;-71
2021/10/27 03:03:05;;;;;;;;;62.00;48.67;;;;;1.22;59.70;102614.81;4936888;29;8929;-71
2021/10/27 03:06:01;;;;;;;;;85.00;67.00;;;;;1.21;59.68;102621.34;4936622;29;8866;-72
2021/10/27 03:08:57;;;;;;;;;86.33;65.67;;;;;1.17;59.45;102617.41;4937005;29;8851;-72
2021/10/27 03:11:53;;;;;;;;;90.67;65.33;;;;;1.18;59.89;102616.34;4936670;29;9577;-73
2021/10/27 03:14:48;;;;;;;;;75.00;63.50;;;;;1.00;59.46;102613.53;4924114;29;8915;-71
2021/10/27 03:17:44;;;;;;;;;84.00;66.00;;;;;1.01;59.36;102616.03;4936593;29;8947;-72
2021/10/27 03:20:39;;;;;;;;;81.00;62.00;;;;;0.77;60.00;102600.50;4936613;29;8871;-72
2021/10/27 03:23:35;;;;;;;;;75.50;62.00;;;;;0.75;59.96;102606.13;4936594;29;8847;-72
2021/10/27 03:26:30;;;;;;;;;78.33;60.67;;;;;0.80;59.08;102605.50;4936428;29;8938;-71
2021/10/27 03:29:26;;;;;;;;;80.00;65.25;;;;;0.59;59.90;102594.91;4933489;29;8835;-71
2021/10/27 03:32:21;;;;;;;;;81.75;64.00;;;;;0.52;60.23;102600.41;4933880;29;9011;-71
2021/10/27 03:35:17;;;;;;;;;88.50;66.25;;;;;0.49;60.83;102598.97;4934780;29;8807;-71
2021/10/27 03:38:13;;;;;;;;;82.75;66.00;;;;;0.35;60.91;102605.50;4935077;29;8965;-70
2021/10/27 03:41:08;;;;;;;;;89.75;68.00;;;;;0.47;60.41;102598.34;4933841;29;8877;-71
2021/10/27 03:44:04;;;;;;;;;3.00;0.00;;;;;0.50;60.39;102595.19;4933178;29;8839;-71
2021/10/27 03:47:00;;;;;;;;;83.50;68.00;;;;;0.46;60.18;102593.09;4934566;29;8869;-71
2021/10/27 03:49:56;;;;;;;;;93.25;72.50;;;;;0.23;60.94;102597.19;4933991;29;8858;-71
2021/10/27 03:52:52;;;;;;;;;87.50;69.00;;;;;0.15;61.27;102591.97;4934403;29;8873;-71
2021/10/27 03:55:48;;;;;;;;;90.25;71.75;;;;;0.14;61.09;102595.75;4919977;29;8860;-70
2021/10/27 03:58:43;;;;;;;;;100.00;76.50;;;;;0.11;61.01;102588.03;4934636;29;8855;-71
2021/10/27 04:01:39;;;;;;;;;92.75;69.00;;;;;0.11;60.64;102585.31;4933499;29;8850;-71
2021/10/27 04:04:35;;;;;;;;;90.75;68.50;;;;;0.04;61.59;102586.38;4922405;29;8842;-71
2021/10/27 04:07:31;;;;;;;;;92.50;69.00;;;;;0.09;61.24;102587.41;4934645;29;8857;-70
2021/10/27 04:10:27;;;;;;;;;87.50;71.00;;;;;0.06;61.40;102586.97;4934160;29;8822;-71
2021/10/27 04:13:22;;;;;;;;;84.00;68.75;;;;;0.14;61.23;102587.56;4933158;29;8834;-71
2021/10/27 04:16:18;;;;;;;;;85.75;70.00;;;;;0.17;60.63;102594.50;4931622;29;8854;-71
2021/10/27 04:19:14;;;;;;;;;95.25;73.50;;;;;0.15;61.36;102591.97;4922962;29;8819;-71
2021/10/27 04:22:09;;;;;;;;;90.00;69.00;;;;;0.21;60.50;102598.44;4934476;29;8866;-70
2021/10/27 04:25:08;;;;;;;;;83.00;67.00;;;;;0.09;61.23;102590.13;4934241;29;8949;-71
2021/10/27 04:28:04;;;;;;;;;91.00;69.00;;;;;0.09;61.83;102592.84;4936426;29;8866;-71
2021/10/27 04:31:02;;;;;;;;;87.25;66.50;;;;;0.16;61.65;102593.66;4934790;29;8839;-71
2021/10/27 04:33:57;;;;;;;;;86.25;68.50;;;;;0.10;61.91;102594.50;4933094;29;8862;-71
2021/10/27 04:36:53;;;;;;;;;81.75;66.00;;;;;0.38;61.51;102599.63;4934609;29;8870;-70
2021/10/27 04:39:36;;;;;;;;;93.00;70.00;;;;;0.53;61.21;102586.56;4932842;29;8850;-71
2021/10/27 04:42:32;;;;;;;;;90.25;71.25;;;;;0.51;62.04;102596.84;4925415;29;9700;-71
2021/10/27 04:45:28;;;;;;;;;89.50;69.00;;;;;0.60;62.12;102589.25;4933961;29;8850;-71
2021/10/27 04:48:24;;;;;;;;;79.75;66.75;;;;;0.87;62.33;102584.50;4921744;29;8865;-71
2021/10/27 04:51:19;;;;;;;;;60.25;52.00;;;;;0.87;61.81;102589.09;4932473;29;8863;-70
2021/10/27 04:54:15;;;;;;;;;87.00;67.50;;;;;0.93;61.85;102585.50;4932514;29;9012;-71
2021/10/27 04:57:10;;;;;;;;;78.75;64.00;;;;;1.07;61.54;102587.06;4933036;29;8851;-71
2021/10/27 05:00:06;;;;;;;;;92.00;71.75;;;;;1.07;61.79;102595.22;4933444;29;8869;-71
2021/10/27 05:03:03;;;;;;;;;112.00;81.75;;;;;1.09;61.16;102598.59;4921880;29;8838;-71
2021/10/27 05:06:01;;;;;;;;;87.25;70.25;;;;;1.11;61.33;102600.03;4919995;29;8838;-71
2021/10/27 05:08:56;;;;;;;;;84.75;70.00;;;;;1.14;60.87;102606.09;4921716;29;8853;-71
2021/10/27 05:11:52;;;;;;;;;96.00;72.25;;;;;1.11;61.43;102604.66;4916218;29;8831;-71
2021/10/27 05:14:48;;;;;;;;;94.25;73.25;;;;;1.29;60.75;102604.69;4930682;29;9658;-70
2021/10/27 05:17:44;;;;;;;;;85.50;69.00;;;;;1.34;60.32;102615.78;4933050;29;9600;-70
2021/10/27 05:20:40;;;;;;;;;93.25;73.75;;;;;1.43;60.38;102616.34;4934331;29;8859;-73
2021/10/27 05:23:35;;;;;;;;;107.25;79.50;;;;;1.53;60.36;102613.94;4934669;29;8866;-72
2021/10/27 05:26:31;;;;;;;;;121.25;85.25;;;;;1.48;60.66;102619.25;4934396;29;8845;-72
2021/10/27 05:29:27;;;;;;;;;104.25;76.25;;;;;1.66;60.68;102618.44;4934564;29;8830;-72
2021/10/27 05:32:24;;;;;;;;;99.00;74.00;;;;;1.81;60.90;102616.19;4921571;29;8838;-72
2021/10/27 05:35:19;;;;;;;;;93.00;72.00;;;;;2.08;60.34;102621.38;4933688;29;8870;-71
2021/10/27 05:38:15;;;;;;;;;93.33;70.00;;;;;2.26;61.06;102620.53;4933383;29;8857;-72
2021/10/27 05:41:11;;;;;;;;;83.67;66.33;;;;;2.35;61.80;102625.47;4934390;29;8953;-72
2021/10/27 05:44:06;;;;;;;;;82.00;60.67;;;;;2.64;61.38;102629.28;4934227;29;9583;-72
2021/10/27 05:47:02;;;;;;;;;89.67;68.33;;;;;2.84;60.93;102623.56;4934285;29;9615;-72
2021/10/27 05:56:23;;;;;;;;;95.67;67.67;;;;;3.55;59.58;102630.03;4937576;29;9639;-72
2021/10/27 05:59:18;;;;;;;;;77.00;61.33;;;;;3.66;59.38;102629.19;4924764;29;8843;-72
2021/10/27 06:02:14;;;;;;;;;78.00;62.67;;;;;3.72;59.74;102624.69;4925025;29;8953;-71
2021/10/27 06:05:10;;;;;;;;;86.67;67.00;;;;;3.94;59.41;102625.75;4925364;29;8855;-72
2021/10/27 06:08:06;;;;;;;;;85.67;70.67;;;;;4.24;58.58;102625.59;4906795;29;8849;-72
2021/10/27 06:11:09;;;;;;;;;85.67;66.33;;;;;4.44;58.05;102619.69;4918648;29;8847;-71
2021/10/27 06:14:05;;;;;;;;;81.33;64.00;;;;;4.84;57.15;102622.41;4921553;29;9647;-71
2021/10/27 06:17:00;;;;;;;;;89.67;65.00;;;;;4.91;56.94;102622.28;4937188;29;8873;-71
2021/10/27 06:19:57;;;;;;;;;66.67;54.33;;;;;5.07;56.57;102617.91;4919519;29;8858;-72
2021/10/27 06:22:52;;;;;;;;;59.00;51.00;;;;;5.03;57.08;102615.63;4918956;29;8867;-71
2021/10/27 06:25:50;;;;;;;;;52.33;45.33;;;;;5.31;56.30;102619.41;4919103;29;8851;-73
2021/10/27 06:31:58;;;;;;;;;59.33;50.33;;;;;5.58;55.63;102614.06;4918353;29;8948;-72
2021/10/27 06:34:59;;;;;;;;;48.33;43.33;;;;;5.79;54.99;102610.56;4936740;29;8830;-73
2021/10/27 06:47:36;;;;;;;;;64.67;53.00;;;;;6.24;53.94;102619.72;4929580;29;11542;-71
2021/10/27 06:50:32;;;;;;;;;62.75;52.00;;;;;6.50;53.78;102607.13;4933468;29;11846;-71
2021/10/27 06:53:00;;;;;;;;;61.67;52.33;;;;;6.69;52.74;102617.53;4937475;29;12431;-72
2021/10/27 06:55:28;;;;;;;;;65.00;52.75;;;;;6.71;53.00;102610.94;4935975;29;11734;-71
2021/10/27 06:57:56;;;;;;;;;62.25;49.25;;;;;6.82;53.03;102605.28;4937649;29;11552;-71
2021/10/27 07:00:56;;;;;;;;;61.50;48.75;;;;;7.03;52.56;102606.31;4936527;29;11552;-70
2021/10/27 07:16:32;;;;;;;;;60.50;50.75;;;;;8.22;50.43;102585.69;4917486;29;11565;-69
2021/10/27 07:19:28;;;;;;;;;57.00;48.00;;;;;8.32;49.99;102588.50;4932966;29;11721;-70
2021/10/27 07:22:24;;;;;;;;;60.75;49.00;;;;;8.57;49.95;102578.69;4924190;29;11625;-69
2021/10/27 07:25:20;;;;;;;;;56.00;46.75;;;;;8.79;49.60;102578.47;4935537;29;11715;-69
2021/10/27 07:28:19;;;;;;;;;59.25;48.75;;;;;8.97;49.62;102574.34;4919972;29;11654;-70
2021/10/27 07:31:17;;;;;;;;;56.00;44.25;;;;;8.94;49.79;102580.41;4925187;29;11547;-69
2021/10/27 07:34:13;;;;;;;;;46.25;41.50;;;;;9.35;49.65;102579.31;4935654;29;11535;-70
2021/10/27 07:43:15;;;;;;;;;48.00;43.50;;;;;9.65;49.00;102566.59;4935873;29;11588;-69
2021/10/27 07:46:12;;;;;;;;;48.50;39.50;;;;;9.91;48.80;102559.91;4935658;29;11580;-70
2021/10/27 07:49:07;;;;;;;;;48.75;43.00;;;;;10.10;48.85;102546.28;4935717;29;11547;-71
2021/10/27 07:52:04;;;;;;;;;28.75;26.00;;;;;10.26;49.31;102549.84;4922635;29;11577;-71
2021/10/27 07:55:00;;;;;;;;;24.50;24.25;;;;;10.50;49.95;102555.53;4935401;29;11512;-70
2021/10/27 07:57:56;;;;;;;;;27.50;27.50;;;;;10.79;50.01;102550.09;4935557;29;11716;-71
2021/10/27 08:00:57;;;;;;;;;19.25;19.25;;;;;10.99;49.91;102546.38;4934234;29;11512;-71
2021/10/27 08:03:55;;;;;;;;;20.00;20.00;;;;;10.96;50.32;102533.91;4916399;29;11488;-71
2021/10/27 08:06:50;;;;;;;;;18.50;18.50;;;;;11.38;49.53;102536.06;4904763;29;11683;-71
2021/10/27 08:09:46;;;;;;;;;24.75;22.25;;;;;11.55;48.95;102540.31;4922041;29;11304;-69
2021/10/27 08:12:54;;;;;;;;;17.00;17.00;;;;;11.70;49.46;102542.94;4922373;29;11525;-70
2021/10/27 08:15:51;;;;;;;;;46.50;38.00;;;;;11.56;49.20;102526.16;4915255;29;11220;-71
2021/10/27 08:18:50;;;;;;;;;17.00;17.00;;;;;12.03;48.71;102534.81;4934615;29;11556;-71
2021/10/27 08:21:18;;;;;;;;;21.50;20.25;;;;;11.81;49.07;102527.03;4935127;29;11035;-71
2021/10/27 08:23:47;;;;;;;;;18.00;17.25;;;;;11.98;48.79;102523.81;4911428;29;11063;-72
2021/10/27 08:26:30;;;;;;;;;21.25;20.50;;;;;12.11;48.36;102526.66;4917674;29;10931;-71
2021/10/27 08:29:00;;;;;;;;;17.00;17.00;;;;;12.08;48.74;102520.91;4935802;29;10914;-72
2021/10/27 08:31:39;;;;;;;;;17.50;17.00;;;;;12.04;49.20;102514.28;4935596;29;11597;-72
2021/10/27 08:34:33;;;;;;;;;18.25;16.50;;;;;12.28;48.52;102511.50;4935141;29;10683;-70
2021/10/27 08:37:29;;;;;;;;;9.75;9.75;;;;;12.72;48.43;102516.66;4934432;29;10440;-71
2021/10/27 08:40:26;;;;;;;;;15.00;15.00;;;;;13.06;47.92;102513.63;4917861;29;10572;-71
2021/10/27 08:42:58;;;;;;;;;9.75;9.75;;;;;13.40;47.32;102496.66;4928943;29;10620;-70
2021/10/27 08:45:54;;;;;;;;;11.00;11.00;;;;;13.60;47.14;102501.84;4935136;29;10246;-70
2021/10/27 08:48:51;;;;;;;;;8.50;8.50;;;;;12.82;48.84;102505.41;4922502;29;10326;-70
2021/10/27 08:51:19;;;;;;;;;3.50;3.50;;;;;12.76;49.86;102503.84;4936007;29;10112;-70
2021/10/27 08:53:48;;;;;;;;;10.00;10.00;;;;;12.92;49.28;102496.09;4919108;29;10186;-70
2021/10/27 08:56:15;;;;;;;;;8.00;8.00;;;;;13.39;48.26;102488.63;4919297;29;10131;-70
2021/10/27 08:58:47;;;;;;;;;8.75;8.75;;;;;13.77;47.68;102475.38;4903526;29;9738;-71
2021/10/27 09:07:05;;;;;;;;;7.00;7.00;;;;;14.04;46.75;102472.59;4935933;29;9708;-70
2021/10/27 09:55:40;;;;;;;;;4.67;4.67;;;;;15.23;41.60;102403.38;4938907;29;9191;-70
2021/10/27 10:06:51;;;;;;;;;4.25;4.25;;;;;15.58;39.11;102389.59;4938945;29;8865;-70
2021/10/27 10:09:19;;;;;;;;;5.00;5.00;;;;;15.71;38.80;102385.03;4938083;29;8870;-72
2021/10/27 10:11:49;;;;;;;;;3.00;3.00;;;;;16.17;37.91;102381.63;4938478;29;8862;-73
2021/10/27 10:14:19;;;;;;;;;6.67;6.67;;;;;15.85;38.54;102380.13;4921957;29;9605;-71
2021/10/27 10:16:53;;;;;;;;;3.75;3.75;;;;;16.05;38.62;102382.31;4938613;29;8960;-71
2021/10/27 10:19:31;;;;;;;;;4.00;4.00;;;;;16.51;37.29;102380.81;4922188;29;8877;-71
2021/10/27 10:21:59;;;;;;;;;4.75;4.75;;;;;16.51;36.47;102385.59;4938330;29;8865;-70
2021/10/27 10:24:37;;;;;;;;;4.00;4.00;;;;;16.35;35.65;102386.09;4937015;29;8859;-71
2021/10/27 10:27:14;;;;;;;;;3.25;3.25;;;;;16.57;33.61;102382.28;4905380;29;8870;-69
2021/10/27 10:30:40;;;;;;;;;2.00;2.00;;;;;16.43;32.01;102380.84;4925037;29;8871;-68
2021/10/27 10:33:44;;;;;;;;;2.00;2.00;;;;;16.50;29.26;102375.56;4917930;29;8886;-69
2021/10/27 10:36:44;;;;;;;;;2.25;2.25;;;;;15.55;32.29;102367.91;4905522;29;8961;-68
2021/10/27 10:39:51;;;;;;;;;2.00;2.00;;;;;16.25;32.96;102368.84;4919365;29;8854;-69
2021/10/27 10:42:59;;;;;;;;;3.00;3.00;;;;;16.24;30.41;102356.84;4918001;29;8839;-69
2021/10/27 10:58:38;;;;;;;;;1.00;1.00;;;;;17.49;18.50;102351.91;4899661;29;9641;-68
2021/10/27 11:38:19;;;;;;;;;3.00;3.00;;;;;18.26;25.81;102301.28;4936645;29;8851;-69
2021/10/27 11:40:54;;;;;;;;;3.00;3.00;;;;;17.83;24.98;102296.06;4932762;29;8859;-70
2021/10/27 11:43:34;;;;;;;;;0.00;0.00;;;;;17.11;22.85;102286.81;4927592;29;8870;-69
2021/10/27 11:51:28;;;;;;;;;3.50;3.50;;;;;17.87;25.58;102277.44;4935142;29;8983;-69
2021/10/27 11:54:27;;;;;;;;;4.00;4.00;;;;;18.17;25.53;102272.53;4935382;29;9020;-69
2021/10/27 11:57:09;;;;;;;;;6.25;6.25;;;;;16.97;26.91;102272.25;4919188;29;9637;-69
2021/10/27 11:59:39;;;;;;;;;3.75;3.75;;;;;17.57;26.80;102268.25;4936075;29;9581;-69
2021/10/27 12:03:07;;;;;;;;;4.50;4.50;;;;;17.64;25.68;102268.53;4918444;29;8861;-70
2021/10/27 12:13:59;;;;;;;;;5.00;5.00;;;;;17.63;25.84;102266.88;4922779;29;8878;-69
2021/10/27 12:19:05;;;;;;;;;5.75;5.75;;;;;17.53;26.69;102265.31;4935390;29;9005;-68
2021/10/27 12:21:35;;;;;;;;;5.75;5.75;;;;;17.19;27.16;102264.41;4936142;29;8827;-68
2021/10/27 12:24:34;;;;;;;;;4.75;4.75;;;;;17.07;26.94;102260.69;4934945;29;8842;-68
2021/10/27 12:27:19;;;;;;;;;5.25;5.25;;;;;16.86;27.54;102255.84;4934930;29;8878;-68
2021/10/27 12:29:57;;;;;;;;;5.50;5.50;;;;;16.68;28.12;102260.66;4934914;29;8925;-67
2021/10/27 12:32:56;;;;;;;;;5.75;5.75;;;;;17.03;28.15;102252.16;4921003;29;8857;-69
2021/10/27 12:35:38;;;;;;;;;4.75;4.75;;;;;16.89;27.97;102249.59;4935187;29;8855;-67
2021/10/27 12:38:38;;;;;;;;;5.00;5.00;;;;;16.84;28.68;102258.16;4918132;29;8885;-67
2021/10/27 12:41:35;;;;;;;;;4.50;4.50;;;;;16.93;27.88;102258.94;4916846;29;8943;-69
2021/10/27 12:44:33;;;;;;;;;7.00;7.00;;;;;16.42;28.53;102256.31;4916471;29;8867;-70
2021/10/27 12:47:31;;;;;;;;;5.25;5.00;;;;;16.89;28.31;102257.16;4916771;29;8869;-69
2021/10/27 12:50:19;;;;;;;;;4.50;4.50;;;;;16.94;28.52;102252.22;4917187;29;8870;-69
2021/10/27 12:52:55;;;;;;;;;5.50;5.50;;;;;16.95;28.40;102244.66;4916791;29;8858;-70
2021/10/27 12:55:32;;;;;;;;;5.50;5.50;;;;;16.92;29.04;102240.53;4916920;29;8862;-69
2021/10/27 12:58:18;;;;;;;;;7.50;7.25;;;;;16.90;29.37;102233.66;4916841;29;8870;-69
2021/10/27 13:32:51;;;;;;;;;11.75;11.75;;;;;16.15;32.66;102240.78;4915522;29;8857;-70
2021/10/27 13:35:19;;;;;;;;;8.25;7.75;;;;;16.29;32.74;102233.84;4900003;29;8864;-69
2021/10/27 13:38:18;;;;;;;;;7.67;7.67;;;;;16.36;33.27;102227.75;4915467;29;9094;-69
2021/10/27 13:41:13;;;;;;;;;7.00;7.00;;;;;16.32;32.98;102215.59;4915636;29;8936;-70
2021/10/27 13:43:49;;;;;;;;;10.50;9.50;;;;;16.02;33.35;102212.72;4884159;29;8876;-70
2021/10/27 14:06:25;;;;;;;;;151.33;109.33;;;;;14.59;36.34;102221.06;4935359;29;9870;-70
2021/10/27 14:09:03;;;;;;;;;172.33;135.33;;;;;14.16;37.30;102213.25;4935139;29;11746;-70
2021/10/27 14:11:38;;;;;;;;;24.75;21.75;;;;;14.08;37.49;102217.63;4934078;29;8893;-70
2021/10/27 14:14:55;;;;;;;;;90.25;75.00;;;;;13.87;38.12;102217.31;4918111;29;10288;-70
2021/10/27 14:19:40;;;;;;;;;155.33;123.33;;;;;13.11;39.57;102213.50;4938323;29;8981;-70
2021/10/27 15:44:59;;;;;;;;;47.50;41.00;;;;;9.59;49.55;102222.41;4930387;29;11616;-67
2021/10/27 15:51:19;;;;;;;;;61.25;49.50;;;;;9.16;50.96;102225.69;4910228;29;11665;-68
2021/10/27 15:54:15;;;;;;;;;60.75;51.50;;;;;9.10;51.28;102224.06;4916635;29;11558;-67
2021/10/27 15:57:11;;;;;;;;;68.75;54.00;;;;;8.88;51.86;102226.38;4903970;29;11533;-67
2021/10/27 16:00:05;;;;;;;;;69.50;56.25;;;;;8.98;52.00;102226.34;4918168;29;11547;-68
2021/10/27 16:03:01;;;;;;;;;66.75;54.25;;;;;9.01;51.63;102231.31;4916234;29;12312;-68
2021/10/27 16:05:58;;;;;;;;;77.50;61.75;;;;;8.88;51.88;102238.25;4934757;29;11552;-68
2021/10/27 16:08:58;;;;;;;;;79.50;63.75;;;;;8.69;52.73;102230.88;4921085;29;11666;-68
2021/10/27 16:11:26;;;;;;;;;84.33;66.00;;;;;8.59;52.73;102235.31;4936047;29;11635;-68
2021/10/27 16:13:54;;;;;;;;;85.33;67.00;;;;;8.92;51.66;102238.50;4935876;29;11738;-68
2021/10/27 16:16:22;;;;;;;;;77.33;62.33;;;;;8.83;51.78;102241.03;4936396;29;8878;-68
2021/10/27 16:19:09;;;;;;;;;98.33;72.67;;;;;8.51;52.75;102238.66;4903473;29;8937;-68
2021/10/27 16:22:08;;;;;;;;;97.00;81.67;;;;;8.30;53.12;102237.00;4925113;29;8858;-67
2021/10/27 16:25:07;;;;;;;;;94.67;82.33;;;;;8.06;54.08;102234.00;4935452;29;8866;-68
2021/10/27 16:28:03;;;;;;;;;127.00;103.00;;;;;7.94;54.42;102248.03;4935167;29;8858;-68
2021/10/27 16:30:59;;;;;;;;;115.75;109.50;;;;;7.96;54.14;102245.81;4935528;29;8868;-68
2021/10/27 16:33:55;;;;;;;;;122.50;116.00;;;;;7.96;54.01;102248.59;4916215;29;8988;-68
2021/10/27 16:36:50;;;;;;;;;152.25;124.50;;;;;8.01;53.91;102251.34;4916430;29;8848;-67
2021/10/27 16:39:18;;;;;;;;;188.75;151.25;;;;;7.80;54.66;102247.75;4929491;29;8854;-67
2021/10/27 16:42:15;;;;;;;;;210.00;167.00;;;;;7.59;55.26;102254.34;4934220;29;9635;-68
2021/10/27 16:44:43;;;;;;;;;184.25;161.00;;;;;7.51;55.35;102254.88;4936112;29;9662;-67
2021/10/27 16:47:40;;;;;;;;;206.00;171.50;;;;;7.51;55.81;102241.94;4922444;29;9663;-67
2021/10/27 16:50:36;;;;;;;;;273.50;204.50;;;;;7.28;56.15;102244.34;4921871;29;8906;-67
2021/10/27 16:53:32;;;;;;;;;258.50;201.00;;;;;7.35;56.49;102243.00;4934072;29;8879;-66
2021/10/27 16:56:30;;;;;;;;;273.25;216.75;;;;;7.47;55.41;102243.59;4931340;29;8984;-68
2021/10/27 16:59:26;;;;;;;;;260.25;199.25;;;;;7.58;55.27;102249.09;4934732;29;8835;-68
2021/10/27 17:02:22;;;;;;;;;221.75;190.00;;;;;7.30;57.17;102234.75;4934930;29;8929;-69
2021/10/27 17:05:17;;;;;;;;;227.50;190.50;;;;;7.27;56.99;102235.25;4935018;29;8913;-67
2021/10/27 17:07:45;;;;;;;;;210.50;181.25;;;;;7.47;56.37;102242.75;4935908;29;8858;-70
2021/10/27 17:10:41;;;;;;;;;217.75;183.00;;;;;7.39;56.58;102238.63;4934315;29;8843;-69
2021/10/27 17:13:09;;;;;;;;;174.25;165.00;;;;;7.45;56.48;102242.22;4935589;29;8838;-68
2021/10/27 17:15:38;;;;;;;;;225.25;183.00;;;;;7.48;56.17;102245.22;4933897;29;8874;-68
2021/10/27 17:18:07;;;;;;;;;214.00;178.25;;;;;7.57;55.49;102250.19;4931270;29;8847;-68
2021/10/27 17:20:51;;;;;;;;;236.25;190.50;;;;;7.18;57.10;102248.72;4935864;29;8882;-68
2021/10/27 17:23:52;;;;;;;;;211.00;167.75;;;;;6.95;57.98;102241.75;4934646;29;8882;-68
2021/10/27 17:26:48;;;;;;;;;203.25;170.00;;;;;6.87;58.30;102253.28;4934134;29;8863;-68
2021/10/27 17:29:44;;;;;;;;;259.00;213.00;;;;;6.74;58.26;102253.75;4914635;29;8874;-67
2021/10/27 17:32:26;;;;;;;;;274.00;213.25;;;;;6.73;58.71;102262.28;4922904;29;8851;-69
2021/10/27 17:34:53;;;;;;;;;292.00;235.75;;;;;6.71;58.31;102256.22;4918238;29;8878;-68
2021/10/27 17:37:51;;;;;;;;;312.75;274.75;;;;;6.52;58.98;102253.09;4934465;29;8858;-68
2021/10/27 17:40:48;;;;;;;;;331.00;263.75;;;;;6.58;58.30;102252.03;4934573;29;8859;-68
2021/10/27 17:43:46;;;;;;;;;331.00;265.25;;;;;6.36;58.86;102252.16;4934532;29;9568;-68
2021/10/27 17:50:19;;;;;;;;;374.75;299.00;;;;;6.63;58.41;102257.56;4915879;29;8861;-67
2021/10/27 17:59:11;;;;;;;;;434.50;344.25;;;;;6.18;59.39;102263.56;4938104;29;8878;-68
2021/10/27 18:02:07;;;;;;;;;453.25;327.75;;;;;6.18;58.97;102266.31;4936622;29;8856;-68
2021/10/27 18:05:03;;;;;;;;;445.75;341.75;;;;;6.44;58.09;102267.31;4916041;29;8950;-70
2021/10/27 18:07:59;;;;;;;;;445.00;353.50;;;;;6.06;59.50;102266.53;4936513;29;8838;-67
2021/10/27 18:10:58;;;;;;;;;469.75;363.50;;;;;6.01;59.39;102263.72;4934713;29;8847;-69
2021/10/27 18:13:59;;;;;;;;;506.75;395.50;;;;;5.93;60.08;102262.28;4933671;29;8881;-67
2021/10/27 18:17:00;;;;;;;;;570.50;429.75;;;;;5.85;60.17;102255.31;4920560;29;8855;-68
2021/10/27 18:26:19;;;;;;;;;545.25;414.00;;;;;5.76;60.36;102256.88;4936162;29;8865;-68
2021/10/27 18:42:14;;;;;;;;;505.75;381.25;;;;;5.85;60.44;102265.47;4936031;29;9575;-69
2021/10/27 18:45:13;;;;;;;;;482.25;393.75;;;;;5.71;60.98;102264.25;4935760;29;8858;-67
2021/10/27 18:48:11;;;;;;;;;535.75;410.00;;;;;5.66;61.28;102254.03;4934377;29;9035;-68